ADDS TAF Board (Experimental) INFO Settings
IDs: Format: Expanded Condensed

KCLE - Cleveland/Hopkins In, OH, US

Issued at 1128 UTC 30 May 2015
Updated at: 1228 UTC 30 May 2015
Time1151Z 30/13Z 30/14Z 30/15Z 30/16Z 30/17Z 30/18Z 30/19Z 30/20Z 30/21Z 30/22Z 30/23Z 31/00Z 31/01Z
Type OBS PRVL PRVL PRVL PRVL PRVL PRVL PRVL PRVL PRVL PRVL PRVL PRVL PRVL
VIS 10 >6 >6 >6 >6 >6 >6 >6 6 6 6 4 4 4
CIG 48 150 150 120 120 120 120 120 40 40 40 35 35 35
Cover OVC BKN BKN BKN BKN BKN BKN BKN BKN BKN BKN OVC OVC OVC
FltCat VFR VFR VFR VFR VFR VFR VFR VFR VFR VFR VFR MVFR MVFR MVFR
WX -- -- -- VCSH VCSH VCSH VCSH VCSH -TSRA -TSRA -TSRA -TSRA BR -TSRA BR -TSRA BR
WDir 190 200 200 200 200 200 200 200 220 220 220 240 240 240
WSpd 8 10 10 12 12 12 12 12 12 12 12 7 7 7
WGst -- -- -- -- -- -- -- -- 18 18 18 -- -- --
R06/24
XWnd -5 -5 -5 -6 -6 -6 -6 -6 -2 -2 -2 1 1 1
XGst -- -- -- -- -- -- -- -- -3 -3 -3 -- -- --
HWnd -6 -9 -9 -10 -10 -10 -10 -10 -12 -12 -12 -7 -7 -7
HGst -- -- -- -- -- -- -- -- -18 -18 -18 -- -- --
R10/28
XWnd -8 -10 -10 -11 -11 -11 -11 -11 -10 -10 -10 -4 -4 -4
XGst -- -- -- -- -- -- -- -- -14 -14 -14 -- -- --
HWnd -1 -3 -3 -4 -4 -4 -4 -4 -7 -7 -7 -6 -6 -6
HGst -- -- -- -- -- -- -- -- -11 -11 -11 -- -- --

NOTE: TEMPO conditions in [brackets]. Keep in mind TEMPO conditions might be better (lower impact) than prevailing conditions.

Raw TAF
KCLE 301128Z 3012/3118 20010KT P6SM SCT070 BKN150
  FM301500 20012KT P6SM VCSH SCT040 BKN120
  FM302000 22012G18KT 6SM -TSRA BKN040CB
  FM302300 24007KT 4SM -TSRA BR OVC035CB
  FM310300 03008KT 3SM -SHRA BR OVC015
  FM310800 05014KT 3SM -SHRA BR BKN008 OVC015


Raw METAR
KCLE 301151Z 19008KT 10SM FEW039 BKN048 OVC150 22/18 A3007 RMK AO2 SLP177 BINOVC T02220183 10233 20217 51011
KCLE 301051Z 20010KT 10SM BKN150 22/18 A3006 RMK AO2 SLP174 T02170178
KCLE 300951Z 20010KT 10SM SCT150 22/18 A3006 RMK AO2 SLP171 T02170178

METAR Board
Radar Display
Forecast Discussion

TAF Board Legend

Potential Impact
Threat None Slight Moderate High
Visibility (sm) ≥5.1 5.1>X≥3 3>X≥1 <1
Ceiling (100 ft) ≥30.1 30.1>X≥10 10>X≥5 <5
Wind Speed (kt) <10 10≤X<20 20≤X<30 ≥30
Wind Gust (kt) <15 15≤X<25 25≤X<35 ≥35
Weather No Wx Reported VCTS,-TS,-FZRA,SN TS,FZRA +TS,+FZRA,+SN